Time;durP1;ratioP1;P1;durP2;ratioP2;P2;SDS_P1;SDS_P2;PMS_P1;PMS_P2;Temp;Humidity;BMP_temperature;BMP_pressure;BME280_temperature;BME280_humidity;BME280_pressure;Samples;Min_cycle;Max_cycle;Signal;HPM_P1;HPM_P2
2022/02/21 00:00:30;;;;;;;0.40;0.30;;;9.90;99.90;;;;;;4200192;28;20214;-74
2022/02/21 00:02:32;;;;;;;0.30;0.20;;;9.90;99.90;;;;;;4210426;28;20547;-74
2022/02/21 00:04:34;;;;;;;0.60;0.37;;;10.00;99.90;;;;;;4212204;28;20282;-74
2022/02/21 00:06:35;;;;;;;0.30;0.20;;;10.00;99.90;;;;;;4213551;28;20237;-75
2022/02/21 00:08:37;;;;;;;0.30;0.10;;;10.00;99.90;;;;;;4210412;28;20268;-74
2022/02/21 00:10:39;;;;;;;1.67;0.43;;;10.00;99.90;;;;;;4214159;28;20252;-74
2022/02/21 00:12:41;;;;;;;0.40;0.30;;;10.00;99.90;;;;;;4202695;28;20211;-74
2022/02/21 00:14:43;;;;;;;0.40;0.40;;;10.00;99.90;;;;;;4213619;28;20602;-74
2022/02/21 00:16:46;;;;;;;1.30;0.30;;;10.00;99.90;;;;;;4201516;28;20209;-74
2022/02/21 00:18:48;;;;;;;0.70;0.30;;;10.00;99.90;;;;;;4203607;28;20203;-74
2022/02/21 00:20:50;;;;;;;0.90;0.40;;;10.00;99.90;;;;;;4200231;28;20260;-74
2022/02/21 00:22:51;;;;;;;1.23;0.50;;;10.10;99.90;;;;;;4197702;28;20214;-74
2022/02/21 00:24:54;;;;;;;0.87;0.30;;;10.10;99.90;;;;;;4198636;28;20235;-74
2022/02/21 00:26:55;;;;;;;1.97;0.40;;;10.10;99.90;;;;;;4207511;28;20261;-74
2022/02/21 00:28:57;;;;;;;0.67;0.40;;;10.10;99.90;;;;;;4197738;28;20218;-74
2022/02/21 00:30:59;;;;;;;0.87;0.30;;;10.10;99.90;;;;;;4207771;28;20760;-74
2022/02/21 00:33:02;;;;;;;1.10;0.40;;;10.10;99.90;;;;;;4212616;28;20217;-74
2022/02/21 00:35:04;;;;;;;0.40;0.40;;;10.10;99.90;;;;;;4213397;28;20233;-74
2022/02/21 00:37:07;;;;;;;2.27;0.40;;;10.20;99.90;;;;;;4212068;28;20229;-76
2022/02/21 00:39:09;;;;;;;1.33;0.40;;;10.10;99.90;;;;;;4212750;28;20626;-74
2022/02/21 00:41:10;;;;;;;2.53;0.50;;;10.20;99.90;;;;;;4213637;28;20202;-74
2022/02/21 00:43:12;;;;;;;0.50;0.40;;;10.20;99.90;;;;;;4209319;28;20569;-74
2022/02/21 00:45:14;;;;;;;1.30;0.30;;;10.20;99.90;;;;;;4208192;28;20222;-74
2022/02/21 00:47:16;;;;;;;1.43;0.50;;;10.20;99.90;;;;;;4207959;28;20513;-74
2022/02/21 00:49:19;;;;;;;1.03;0.40;;;10.20;99.90;;;;;;4213173;28;20628;-74
2022/02/21 00:51:21;;;;;;;1.90;0.33;;;10.20;99.90;;;;;;4212598;28;20201;-74
2022/02/21 00:53:23;;;;;;;1.50;0.40;;;10.20;99.90;;;;;;4211952;28;20214;-76
2022/02/21 00:55:24;;;;;;;2.07;0.43;;;10.20;99.90;;;;;;4212226;28;20252;-75
2022/02/21 00:57:26;;;;;;;1.43;0.40;;;10.30;99.90;;;;;;4199625;28;20740;-74
2022/02/21 00:59:28;;;;;;;1.00;0.50;;;10.20;99.90;;;;;;4213338;28;20222;-74
2022/02/21 01:01:30;;;;;;;1.63;0.43;;;10.20;99.90;;;;;;4212193;28;20255;-74
2022/02/21 01:03:32;;;;;;;0.77;0.37;;;10.20;99.90;;;;;;4208458;28;20206;-74
2022/02/21 01:05:40;;;;;;;0.37;0.37;;;10.20;99.90;;;;;;4210892;28;20710;-75
2022/02/21 01:07:42;;;;;;;1.97;0.40;;;10.20;99.90;;;;;;4211665;28;20202;-75
2022/02/21 01:09:43;;;;;;;0.87;0.43;;;10.30;99.90;;;;;;4206347;28;20215;-74
2022/02/21 01:11:45;;;;;;;1.07;0.50;;;10.30;99.90;;;;;;4208249;28;20216;-74
2022/02/21 01:13:47;;;;;;;2.23;0.43;;;10.30;99.90;;;;;;4204800;28;20675;-74
2022/02/21 01:15:49;;;;;;;0.30;0.20;;;10.30;99.90;;;;;;4213216;28;20221;-74
2022/02/21 01:17:50;;;;;;;0.97;0.30;;;10.40;99.90;;;;;;4210563;28;20206;-74
2022/02/21 01:19:52;;;;;;;1.27;0.40;;;10.40;99.90;;;;;;4206156;28;20210;-74
2022/02/21 01:21:55;;;;;;;2.37;0.40;;;10.40;99.90;;;;;;4198508;28;20635;-74
2022/02/21 01:23:57;;;;;;;1.23;0.50;;;10.40;99.90;;;;;;4197111;28;20243;-74
2022/02/21 01:25:59;;;;;;;1.30;0.50;;;10.40;99.90;;;;;;4199767;28;20243;-74
2022/02/21 01:28:00;;;;;;;1.43;0.40;;;10.40;99.90;;;;;;4211715;28;20205;-74
2022/02/21 01:30:04;;;;;;;1.67;0.40;;;10.40;99.90;;;;;;4203955;28;20643;-74
2022/02/21 01:32:07;;;;;;;1.70;0.40;;;10.40;99.90;;;;;;4209479;28;20571;-75
2022/02/21 01:34:08;;;;;;;0.60;0.30;;;10.40;99.90;;;;;;4195418;28;20223;-74
2022/02/21 01:36:10;;;;;;;2.23;0.40;;;10.50;99.90;;;;;;4206981;28;20636;-74
2022/02/21 01:38:13;;;;;;;1.03;0.37;;;10.40;99.90;;;;;;4209373;28;20296;-74
2022/02/21 01:40:15;;;;;;;0.67;0.40;;;10.50;99.90;;;;;;4202420;28;20613;-74
2022/02/21 01:42:17;;;;;;;0.63;0.40;;;10.50;99.90;;;;;;4209625;28;20260;-74
2022/02/21 01:44:19;;;;;;;0.40;0.30;;;10.50;99.90;;;;;;4196017;28;20206;-75
2022/02/21 01:46:20;;;;;;;0.90;0.23;;;10.40;99.90;;;;;;4209917;28;20226;-74
2022/02/21 01:48:22;;;;;;;1.03;0.30;;;10.40;99.90;;;;;;4209041;28;20258;-74
2022/02/21 01:50:24;;;;;;;0.73;0.40;;;10.40;99.90;;;;;;4212187;28;20214;-74
2022/02/21 01:52:25;;;;;;;0.30;0.20;;;10.40;99.90;;;;;;4210473;28;20675;-74
2022/02/21 01:54:29;;;;;;;0.30;0.30;;;10.40;99.90;;;;;;4211817;28;20214;-74
2022/02/21 01:56:30;;;;;;;1.73;0.40;;;10.40;99.90;;;;;;4210759;28;20202;-74
2022/02/21 01:58:32;;;;;;;0.50;0.37;;;10.40;99.90;;;;;;4199080;28;20951;-74
2022/02/21 02:00:34;;;;;;;1.43;0.40;;;10.40;99.90;;;;;;4212857;28;20210;-74
2022/02/21 02:02:36;;;;;;;0.30;0.30;;;10.40;99.90;;;;;;4201068;28;20619;-74
2022/02/21 02:04:38;;;;;;;0.43;0.27;;;10.40;99.90;;;;;;4210371;28;20271;-74
2022/02/21 02:06:40;;;;;;;0.73;0.30;;;10.50;99.90;;;;;;4207600;28;20746;-74
2022/02/21 02:08:41;;;;;;;1.60;0.33;;;10.40;99.90;;;;;;4205543;28;20252;-75
2022/02/21 02:10:45;;;;;;;1.17;0.50;;;10.40;99.90;;;;;;4205319;28;20663;-74
2022/02/21 02:12:47;;;;;;;2.03;0.60;;;10.40;99.90;;;;;;4206672;28;20210;-74
2022/02/21 02:14:49;;;;;;;0.57;0.40;;;10.40;99.90;;;;;;4207008;28;20246;-74
2022/02/21 02:16:50;;;;;;;0.30;0.30;;;10.40;99.90;;;;;;4202576;28;20206;-74
2022/02/21 02:18:52;;;;;;;0.93;0.30;;;10.30;99.90;;;;;;4199828;28;20214;-74
2022/02/21 02:20:54;;;;;;;1.03;0.30;;;10.40;99.90;;;;;;4200097;28;20561;-74
2022/02/21 02:22:57;;;;;;;0.47;0.30;;;10.30;99.90;;;;;;4207339;28;21170;-74
2022/02/21 02:24:59;;;;;;;1.40;0.37;;;10.30;99.90;;;;;;4199130;28;20241;-74
2022/02/21 02:27:00;;;;;;;1.13;0.30;;;10.30;99.90;;;;;;4214937;28;20606;-75
2022/02/21 02:29:02;;;;;;;2.13;0.40;;;10.30;99.90;;;;;;4203585;28;20259;-74
2022/02/21 02:31:04;;;;;;;0.50;0.23;;;10.30;99.90;;;;;;4212152;28;20257;-74
2022/02/21 02:33:06;;;;;;;0.70;0.30;;;10.30;99.90;;;;;;4200278;28;20209;-75
2022/02/21 02:35:08;;;;;;;1.43;0.40;;;10.30;99.90;;;;;;4211400;28;20238;-74
2022/02/21 02:37:10;;;;;;;1.00;0.30;;;10.40;99.90;;;;;;4203223;28;20207;-74
2022/02/21 02:39:14;;;;;;;0.30;0.30;;;10.30;99.90;;;;;;4214589;28;20206;-74
2022/02/21 02:41:15;;;;;;;0.60;0.10;;;10.20;99.90;;;;;;4213848;28;20206;-74
2022/02/21 02:43:17;;;;;;;1.03;0.40;;;9.90;99.90;;;;;;4203576;28;20212;-74
2022/02/21 02:45:21;;;;;;;6.10;0.70;;;9.60;99.90;;;;;;4196997;28;20283;-82
2022/02/21 02:47:23;;;;;;;7.40;0.80;;;8.70;99.90;;;;;;4213361;28;20346;-76
2022/02/21 02:49:24;;;;;;;2.07;0.60;;;7.40;99.90;;;;;;4202300;28;20217;-76
2022/02/21 02:51:26;;;;;;;0.73;0.40;;;6.70;99.90;;;;;;4208866;28;20516;-76
2022/02/21 02:53:29;;;;;;;1.57;0.50;;;6.30;99.90;;;;;;4209583;28;20599;-78
2022/02/21 02:55:32;;;;;;;2.10;0.60;;;6.10;99.90;;;;;;4203057;28;20536;-75
2022/02/21 02:57:34;;;;;;;1.40;0.40;;;5.90;99.90;;;;;;4202995;28;20457;-77
2022/02/21 02:59:36;;;;;;;3.57;0.40;;;5.90;99.90;;;;;;4206949;28;20501;-75
2022/02/21 03:01:39;;;;;;;2.53;1.13;;;5.80;99.90;;;;;;4213719;28;20455;-76
2022/02/21 03:03:40;;;;;;;1.00;0.40;;;5.80;99.90;;;;;;4214116;28;20550;-76
2022/02/21 03:05:42;;;;;;;1.63;0.50;;;5.70;99.90;;;;;;4210984;28;20554;-75
2022/02/21 03:07:44;;;;;;;1.73;0.60;;;5.70;99.90;;;;;;4213846;28;20494;-75
2022/02/21 03:09:45;;;;;;;0.40;0.37;;;5.80;99.90;;;;;;4210619;28;20469;-75
2022/02/21 03:11:48;;;;;;;0.97;0.40;;;5.70;99.90;;;;;;4209448;28;20472;-76
2022/02/21 03:13:50;;;;;;;2.67;0.50;;;5.70;99.90;;;;;;4214021;28;20450;-75
2022/02/21 03:15:52;;;;;;;1.50;0.40;;;5.70;99.90;;;;;;4208738;28;20542;-74
2022/02/21 03:17:54;;;;;;;3.13;0.43;;;5.70;99.90;;;;;;4205613;28;20456;-74
2022/02/21 03:19:55;;;;;;;1.93;0.40;;;5.70;99.90;;;;;;4205453;28;20980;-74
2022/02/21 03:21:59;;;;;;;1.43;0.50;;;5.70;99.90;;;;;;4207434;28;20801;-75
2022/02/21 03:24:00;;;;;;;2.90;0.60;;;5.70;99.90;;;;;;4210136;28;20460;-74
2022/02/21 03:26:02;;;;;;;1.70;0.50;;;5.80;99.90;;;;;;4214824;28;20904;-74
2022/02/21 03:28:08;;;;;;;1.07;0.50;;;5.80;99.90;;;;;;4214819;28;20459;-74
2022/02/21 03:30:12;;;;;;;0.63;0.37;;;5.80;99.90;;;;;;4202344;28;20474;-74
2022/02/21 03:32:13;;;;;;;1.67;0.40;;;5.80;99.90;;;;;;4213591;28;20452;-75
2022/02/21 03:34:15;;;;;;;1.77;0.47;;;5.80;99.90;;;;;;4212828;28;20905;-75
2022/02/21 03:36:17;;;;;;;1.20;0.50;;;5.80;99.90;;;;;;4198208;28;20475;-75
2022/02/21 03:38:19;;;;;;;0.40;0.33;;;5.80;99.90;;;;;;4214229;28;20456;-75
2022/02/21 03:40:21;;;;;;;1.40;0.40;;;5.80;99.90;;;;;;4213336;28;20889;-74
2022/02/21 03:42:22;;;;;;;2.73;0.60;;;5.80;99.90;;;;;;4213437;28;20510;-74
2022/02/21 03:44:25;;;;;;;1.60;0.60;;;5.80;99.90;;;;;;4210323;28;20473;-75
2022/02/21 03:46:27;;;;;;;0.57;0.40;;;5.80;99.90;;;;;;4206127;28;20591;-74
2022/02/21 03:48:29;;;;;;;0.93;0.60;;;5.80;99.90;;;;;;4200037;28;20456;-74
2022/02/21 03:50:31;;;;;;;0.60;0.30;;;5.80;99.90;;;;;;4199837;28;20465;-74
2022/02/21 03:52:33;;;;;;;0.40;0.40;;;5.80;99.90;;;;;;4198212;28;20934;-74
2022/02/21 03:54:34;;;;;;;0.20;0.20;;;5.80;99.90;;;;;;4208697;28;20492;-75
2022/02/21 03:56:37;;;;;;;0.30;0.30;;;5.80;99.90;;;;;;4213441;28;20510;-75
2022/02/21 03:58:41;;;;;;;0.20;0.20;;;5.80;99.90;;;;;;4213361;28;20473;-74
2022/02/21 04:00:44;;;;;;;6.07;0.67;;;5.80;99.90;;;;;;4212529;28;20461;-74
2022/02/21 04:02:46;;;;;;;1.17;0.20;;;5.80;99.90;;;;;;4213758;28;20487;-76
2022/02/21 04:04:48;;;;;;;2.73;0.40;;;5.80;99.90;;;;;;4207732;28;20646;-74
2022/02/21 04:06:49;;;;;;;1.53;0.30;;;5.80;99.90;;;;;;4210640;28;20545;-74
2022/02/21 04:08:51;;;;;;;0.20;0.20;;;5.80;99.90;;;;;;4212680;28;20453;-75
2022/02/21 04:10:53;;;;;;;2.20;0.30;;;5.80;99.90;;;;;;4213588;28;20914;-74
2022/02/21 04:12:55;;;;;;;1.80;0.23;;;5.80;99.90;;;;;;4214265;28;20878;-74
2022/02/21 04:14:58;;;;;;;1.23;0.40;;;5.80;99.90;;;;;;4205017;28;20494;-75
2022/02/21 04:17:01;;;;;;;0.40;0.20;;;5.80;99.90;;;;;;4209990;28;20465;-74
2022/02/21 04:19:03;;;;;;;0.43;0.20;;;5.80;99.90;;;;;;4203653;28;20533;-76
2022/02/21 04:21:05;;;;;;;0.63;0.40;;;5.70;99.90;;;;;;4202857;28;20526;-74
2022/02/21 04:23:07;;;;;;;0.50;0.30;;;5.70;99.90;;;;;;4197783;28;20880;-75
2022/02/21 04:25:10;;;;;;;1.33;0.30;;;5.70;99.90;;;;;;4208906;28;20973;-76
2022/02/21 04:27:12;;;;;;;2.67;0.40;;;5.70;99.90;;;;;;4213043;28;20537;-74
2022/02/21 04:29:14;;;;;;;1.00;0.50;;;5.70;99.90;;;;;;4210572;28;20474;-74
2022/02/21 04:31:17;;;;;;;0.40;0.30;;;5.70;99.90;;;;;;4204879;28;20466;-74
2022/02/21 04:33:20;;;;;;;0.90;0.37;;;5.70;99.90;;;;;;4211833;28;20456;-76
2022/02/21 04:35:24;;;;;;;2.33;0.40;;;5.80;99.90;;;;;;4206042;28;20492;-74
2022/02/21 04:37:26;;;;;;;2.10;0.30;;;5.70;99.90;;;;;;4213862;28;20449;-75
2022/02/21 04:39:28;;;;;;;1.63;0.57;;;5.70;99.90;;;;;;4206441;28;20473;-74
2022/02/21 04:41:29;;;;;;;1.40;0.30;;;5.80;99.90;;;;;;4213731;28;20453;-75
2022/02/21 04:43:31;;;;;;;0.80;0.40;;;5.70;99.90;;;;;;4213653;28;20465;-74
2022/02/21 04:45:33;;;;;;;0.40;0.20;;;5.70;99.90;;;;;;4208369;28;20537;-74
2022/02/21 04:47:35;;;;;;;0.80;0.30;;;5.70;99.90;;;;;;4200946;28;20498;-74
2022/02/21 04:49:38;;;;;;;2.43;0.50;;;5.60;99.90;;;;;;4197617;28;20469;-74
2022/02/21 04:51:39;;;;;;;0.87;0.40;;;5.60;99.90;;;;;;4197940;28;20455;-76
2022/02/21 04:53:41;;;;;;;0.90;0.40;;;5.60;99.90;;;;;;4201676;28;20961;-74
2022/02/21 04:55:43;;;;;;;0.20;0.20;;;5.60;99.90;;;;;;4201180;28;20472;-74
2022/02/21 04:57:46;;;;;;;0.70;0.30;;;5.50;99.90;;;;;;4211028;28;20464;-74
2022/02/21 04:59:48;;;;;;;0.40;0.30;;;5.50;99.90;;;;;;4209744;28;20550;-75
2022/02/21 05:01:49;;;;;;;0.73;0.37;;;5.50;99.90;;;;;;4205434;28;20509;-73
2022/02/21 05:03:51;;;;;;;1.70;0.50;;;5.40;99.90;;;;;;4211672;28;20890;-74
2022/02/21 05:05:54;;;;;;;1.60;0.37;;;5.40;99.90;;;;;;4209559;28;20479;-73
2022/02/21 05:07:56;;;;;;;1.67;0.53;;;5.40;99.90;;;;;;4207197;28;20483;-74
2022/02/21 05:09:58;;;;;;;3.13;0.27;;;5.40;99.90;;;;;;4208468;28;20526;-75
2022/02/21 05:11:59;;;;;;;1.17;0.50;;;5.30;99.90;;;;;;4206726;28;20544;-75
2022/02/21 05:14:01;;;;;;;3.30;0.53;;;5.30;99.90;;;;;;4211498;28;20494;-74
2022/02/21 05:16:03;;;;;;;0.30;0.30;;;5.20;99.90;;;;;;4208492;28;20503;-74
2022/02/21 05:18:07;;;;;;;0.30;0.30;;;5.20;99.90;;;;;;4201540;28;20461;-74
2022/02/21 05:20:10;;;;;;;0.40;0.40;;;5.20;99.90;;;;;;4206172;28;20962;-74
2022/02/21 05:22:13;;;;;;;0.93;0.47;;;5.20;99.90;;;;;;4202068;28;20463;-75
2022/02/21 05:24:15;;;;;;;1.37;0.43;;;5.20;99.90;;;;;;4208406;28;20482;-74
2022/02/21 05:26:17;;;;;;;2.03;0.50;;;5.20;99.90;;;;;;4206136;28;20459;-73
2022/02/21 05:28:18;;;;;;;2.20;0.50;;;5.20;99.90;;;;;;4203436;28;20491;-74
2022/02/21 05:30:20;;;;;;;1.57;0.43;;;5.10;99.90;;;;;;4210717;28;20467;-74
2022/02/21 05:32:22;;;;;;;1.67;0.47;;;5.10;99.90;;;;;;4207507;28;21054;-74
2022/02/21 05:34:24;;;;;;;3.47;0.60;;;5.00;99.90;;;;;;4209276;28;20476;-74
2022/02/21 05:36:25;;;;;;;2.10;0.77;;;4.90;99.90;;;;;;4213638;28;20489;-74
2022/02/21 05:38:29;;;;;;;3.43;0.50;;;4.80;99.90;;;;;;4200640;28;20461;-74
2022/02/21 05:40:30;;;;;;;1.70;0.57;;;4.80;99.90;;;;;;4209152;28;20471;-73
2022/02/21 05:42:32;;;;;;;2.37;0.70;;;4.60;99.90;;;;;;4212531;28;20481;-73
2022/02/21 05:44:34;;;;;;;3.57;0.73;;;4.60;99.90;;;;;;4213151;28;20490;-74
2022/02/21 05:46:37;;;;;;;6.23;1.00;;;4.60;99.90;;;;;;4209812;28;20888;-75
2022/02/21 05:48:39;;;;;;;2.37;0.80;;;4.50;99.90;;;;;;4208713;28;20456;-74
2022/02/21 05:50:41;;;;;;;3.13;0.90;;;4.50;99.90;;;;;;4204679;28;20493;-74
2022/02/21 05:52:43;;;;;;;1.67;0.73;;;4.40;99.90;;;;;;4201067;28;20456;-74
2022/02/21 05:54:46;;;;;;;2.60;0.53;;;4.40;99.90;;;;;;4201901;28;20539;-74
2022/02/21 05:56:49;;;;;;;3.07;0.70;;;4.40;99.90;;;;;;4216029;28;20973;-74
2022/02/21 05:58:50;;;;;;;3.73;0.77;;;4.30;99.90;;;;;;4214952;28;20456;-73
2022/02/21 06:00:55;;;;;;;3.47;1.27;;;4.30;99.90;;;;;;4212162;28;21017;-73
2022/02/21 06:02:56;;;;;;;3.80;1.00;;;4.30;99.90;;;;;;4202968;28;20459;-74
2022/02/21 06:04:59;;;;;;;2.47;1.00;;;4.30;99.90;;;;;;4202338;28;20537;-73
2022/02/21 06:07:01;;;;;;;4.73;0.83;;;4.30;99.90;;;;;;4201790;28;20483;-73
2022/02/21 06:09:03;;;;;;;0.63;0.50;;;4.40;99.90;;;;;;4205318;28;20460;-74
2022/02/21 06:11:06;;;;;;;2.67;0.70;;;4.30;99.90;;;;;;4208438;28;20472;-74
2022/02/21 06:13:08;;;;;;;4.63;0.70;;;4.30;99.90;;;;;;4205966;28;20475;-75
2022/02/21 06:15:12;;;;;;;2.67;0.60;;;4.30;99.90;;;;;;4208311;28;20916;-75
2022/02/21 06:17:15;;;;;;;1.80;0.60;;;4.30;99.90;;;;;;4213927;28;20462;-74
2022/02/21 06:19:19;;;;;;;1.93;0.50;;;4.20;99.90;;;;;;4208321;28;20971;-76
2022/02/21 06:21:20;;;;;;;4.33;0.90;;;4.20;99.90;;;;;;4208139;28;20976;-74
2022/02/21 06:23:22;;;;;;;2.83;0.70;;;4.10;99.90;;;;;;4211372;28;20478;-75
2022/02/21 06:25:24;;;;;;;2.93;0.70;;;4.00;99.90;;;;;;4212317;28;20475;-75
2022/02/21 06:27:27;;;;;;;3.93;0.60;;;4.00;99.90;;;;;;4205075;28;21010;-74
2022/02/21 06:29:29;;;;;;;2.93;0.67;;;3.90;99.90;;;;;;4209458;28;20522;-74
2022/02/21 06:31:32;;;;;;;2.97;0.70;;;3.80;99.90;;;;;;4207094;28;20910;-74
2022/02/21 06:33:34;;;;;;;2.30;0.87;;;3.80;99.90;;;;;;4218721;28;20538;-74
2022/02/21 06:35:36;;;;;;;5.20;0.73;;;3.80;99.90;;;;;;4214053;28;20490;-74
2022/02/21 06:37:41;;;;;;;1.27;0.70;;;3.70;99.90;;;;;;4207312;28;20467;-77
2022/02/21 06:39:46;;;;;;;2.83;0.50;;;3.70;99.90;;;;;;4214512;28;20546;-73
2022/02/21 06:41:48;;;;;;;1.77;0.30;;;3.60;99.90;;;;;;4207763;28;20476;-74
2022/02/21 06:43:51;;;;;;;3.13;0.80;;;3.60;99.90;;;;;;4214215;28;20446;-74
2022/02/21 06:45:53;;;;;;;3.97;0.47;;;3.60;99.90;;;;;;4204283;28;20979;-75
2022/02/21 06:47:55;;;;;;;1.47;0.40;;;3.50;99.90;;;;;;4205958;28;20537;-75
2022/02/21 06:49:57;;;;;;;2.10;0.63;;;3.50;99.90;;;;;;4212188;28;20471;-74
2022/02/21 06:52:00;;;;;;;1.57;0.50;;;3.50;99.90;;;;;;4211810;28;20508;-74
2022/02/21 06:54:01;;;;;;;1.53;0.50;;;3.50;99.90;;;;;;4210820;28;20507;-74
2022/02/21 06:56:04;;;;;;;1.70;0.60;;;3.40;99.90;;;;;;4211711;28;20466;-74
2022/02/21 06:58:05;;;;;;;2.83;0.60;;;3.40;99.90;;;;;;4209122;28;20448;-76
2022/02/21 07:00:09;;;;;;;1.97;0.60;;;3.40;99.90;;;;;;4209976;28;20475;-76
2022/02/21 07:02:11;;;;;;;0.87;0.43;;;3.30;99.90;;;;;;4210412;28;20836;-78
2022/02/21 07:04:13;;;;;;;2.53;0.50;;;3.30;99.90;;;;;;4211211;28;20885;-74
2022/02/21 07:06:15;;;;;;;2.17;0.60;;;3.30;99.90;;;;;;4208922;28;20467;-74
2022/02/21 07:08:17;;;;;;;3.03;0.70;;;3.70;99.90;;;;;;4210843;28;20494;-74
2022/02/21 07:10:18;;;;;;;2.53;1.00;;;3.20;99.90;;;;;;4210956;28;20937;-74
2022/02/21 07:12:20;;;;;;;4.13;0.70;;;3.20;99.90;;;;;;4208310;28;20513;-76
2022/02/21 07:14:22;;;;;;;5.53;1.10;;;3.10;99.90;;;;;;4208171;28;20518;-75
2022/02/21 07:16:26;;;;;;;4.07;0.93;;;3.10;99.90;;;;;;4211879;28;20471;-74
2022/02/21 07:18:28;;;;;;;4.23;0.90;;;3.10;99.90;;;;;;4209227;28;20492;-74
2022/02/21 07:20:30;;;;;;;3.30;0.73;;;3.10;99.90;;;;;;4204777;28;20467;-74
2022/02/21 07:22:31;;;;;;;5.50;1.13;;;3.00;99.90;;;;;;4207850;28;20459;-74
2022/02/21 07:24:33;;;;;;;2.97;0.90;;;3.00;99.90;;;;;;4206400;28;20475;-74
2022/02/21 07:26:35;;;;;;;3.77;1.20;;;3.00;99.90;;;;;;4208817;28;20817;-73
2022/02/21 07:28:37;;;;;;;2.73;1.00;;;3.10;99.90;;;;;;4211640;28;20487;-74
2022/02/21 07:30:39;;;;;;;7.00;1.17;;;3.10;99.90;;;;;;4209944;28;20476;-74
2022/02/21 07:32:43;;;;;;;2.77;0.97;;;3.10;99.90;;;;;;4209876;28;20466;-74
2022/02/21 07:34:45;;;;;;;6.37;1.20;;;3.10;99.90;;;;;;4204359;28;20480;-74
2022/02/21 07:36:46;;;;;;;8.07;1.10;;;3.10;99.90;;;;;;4206513;28;20467;-75
2022/02/21 07:38:48;;;;;;;8.63;1.43;;;3.20;99.90;;;;;;4199795;28;20871;-75
2022/02/21 07:40:51;;;;;;;4.37;1.00;;;3.20;99.90;;;;;;4204444;28;20451;-74
2022/02/21 07:42:55;;;;;;;5.07;1.53;;;3.20;99.90;;;;;;4194782;28;20516;-75
2022/02/21 07:44:56;;;;;;;8.80;1.30;;;3.30;99.90;;;;;;4203138;28;20498;-75
2022/02/21 07:46:58;;;;;;;4.80;0.83;;;3.30;99.90;;;;;;4202554;28;20464;-75
2022/02/21 07:49:01;;;;;;;5.93;1.07;;;3.30;99.90;;;;;;4205630;28;20576;-73
2022/02/21 07:51:03;;;;;;;3.00;1.00;;;3.60;99.90;;;;;;4204539;28;20451;-75
2022/02/21 07:53:05;;;;;;;7.07;1.23;;;3.40;99.90;;;;;;4203968;28;20455;-74
2022/02/21 07:55:07;;;;;;;6.73;0.90;;;3.40;99.90;;;;;;4203774;28;21014;-73
2022/02/21 07:57:09;;;;;;;2.60;0.90;;;3.40;99.90;;;;;;4199412;28;20884;-74
2022/02/21 07:59:11;;;;;;;6.93;1.60;;;3.40;99.90;;;;;;4204774;28;20456;-75
2022/02/21 08:01:13;;;;;;;6.37;1.30;;;3.60;99.90;;;;;;4206113;28;20456;-73
2022/02/21 08:03:15;;;;;;;5.27;1.30;;;3.50;99.90;;;;;;4204817;28;20490;-74
2022/02/21 08:05:18;;;;;;;5.07;1.17;;;3.50;99.90;;;;;;4203237;28;20482;-73
2022/02/21 08:07:19;;;;;;;3.27;0.87;;;3.50;99.90;;;;;;4202920;28;21623;-74
2022/02/21 08:09:21;;;;;;;4.93;0.93;;;3.60;99.90;;;;;;4203654;28;20455;-75
2022/02/21 08:11:24;;;;;;;5.00;0.80;;;3.60;99.90;;;;;;4202245;28;20570;-73
2022/02/21 08:13:26;;;;;;;3.27;1.03;;;3.70;99.90;;;;;;4204400;28;20571;-73
2022/02/21 08:15:28;;;;;;;8.07;1.07;;;3.70;99.90;;;;;;4201674;28;21018;-74
2022/02/21 08:17:38;;;;;;;4.40;0.90;;;3.70;99.90;;;;;;4203186;28;20459;-73
2022/02/21 08:19:40;;;;;;;5.03;0.80;;;3.70;99.90;;;;;;4203529;28;20748;-73
2022/02/21 08:21:44;;;;;;;3.00;0.90;;;3.80;99.90;;;;;;4203093;28;20470;-73
2022/02/21 08:23:46;;;;;;;2.50;0.77;;;3.80;99.90;;;;;;4205155;28;20544;-75
2022/02/21 08:25:47;;;;;;;4.43;0.97;;;3.80;99.90;;;;;;4203803;28;20532;-75
2022/02/21 08:27:52;;;;;;;1.80;0.90;;;3.80;99.90;;;;;;4202027;28;21329;-76
2022/02/21 08:29:53;;;;;;;2.57;0.80;;;3.60;99.90;;;;;;4202791;28;20476;-73
2022/02/21 08:31:55;;;;;;;4.97;0.93;;;3.90;99.90;;;;;;4205990;28;20460;-73
2022/02/21 08:33:57;;;;;;;6.67;1.10;;;3.90;99.90;;;;;;4203815;28;20537;-73
2022/02/21 08:35:59;;;;;;;3.93;0.93;;;4.00;99.90;;;;;;4201246;28;20487;-75
2022/02/21 08:38:02;;;;;;;7.13;0.80;;;4.00;99.90;;;;;;4203598;28;20468;-73
2022/02/21 08:40:06;;;;;;;5.70;1.00;;;4.10;99.90;;;;;;4202859;28;20495;-75
2022/02/21 08:42:08;;;;;;;7.10;1.30;;;4.10;99.90;;;;;;4202927;28;20963;-74
2022/02/21 08:44:09;;;;;;;6.63;1.07;;;4.20;99.90;;;;;;4203655;28;20474;-74
2022/02/21 08:46:11;;;;;;;4.73;0.90;;;4.20;99.90;;;;;;4203447;28;20508;-73
2022/02/21 08:48:13;;;;;;;6.83;1.10;;;4.30;99.90;;;;;;4202890;28;20498;-73
2022/02/21 08:50:15;;;;;;;2.83;0.87;;;4.30;99.90;;;;;;4204042;28;20452;-74
2022/02/21 08:52:17;;;;;;;4.30;0.90;;;4.30;99.90;;;;;;4203886;28;20466;-75
2022/02/21 08:54:21;;;;;;;5.40;1.00;;;4.40;99.90;;;;;;4200497;28;21014;-76
2022/02/21 08:56:24;;;;;;;4.63;0.80;;;4.40;99.90;;;;;;4203715;28;20482;-77
2022/02/21 08:58:25;;;;;;;2.73;0.83;;;4.40;99.90;;;;;;4204112;28;20462;-75
2022/02/21 09:00:27;;;;;;;3.57;0.90;;;4.30;99.90;;;;;;4203223;28;20512;-75
2022/02/21 09:02:29;;;;;;;2.53;0.73;;;4.30;99.90;;;;;;4201686;28;20467;-73
2022/02/21 09:04:31;;;;;;;3.23;0.70;;;4.30;99.90;;;;;;4204566;28;20471;-76
2022/02/21 09:06:32;;;;;;;1.47;0.60;;;4.30;99.90;;;;;;4204472;28;20461;-74
2022/02/21 09:08:34;;;;;;;3.83;0.67;;;4.20;99.90;;;;;;4204147;28;20483;-74
2022/02/21 09:10:37;;;;;;;2.37;0.70;;;4.20;99.90;;;;;;4203178;28;20949;-73
2022/02/21 09:12:39;;;;;;;4.37;0.70;;;4.20;99.90;;;;;;4201130;28;20735;-73
2022/02/21 09:14:46;;;;;;;6.20;0.67;;;4.20;99.90;;;;;;4201080;28;20491;-74
2022/02/21 09:16:48;;;;;;;4.73;0.70;;;4.30;99.90;;;;;;4202727;28;20451;-74
2022/02/21 09:18:50;;;;;;;1.50;0.47;;;4.30;99.90;;;;;;4207547;28;20452;-73
2022/02/21 09:20:53;;;;;;;3.80;0.60;;;4.30;99.90;;;;;;4208052;28;20855;-73
2022/02/21 09:22:54;;;;;;;1.73;0.60;;;4.20;99.90;;;;;;4205379;28;20471;-74
2022/02/21 09:24:56;;;;;;;3.43;0.50;;;4.20;99.90;;;;;;4204933;28;20569;-75
2022/02/21 09:26:59;;;;;;;1.00;0.50;;;4.20;99.90;;;;;;4207102;28;20459;-73
2022/02/21 09:29:01;;;;;;;1.30;0.60;;;4.20;99.90;;;;;;4207301;28;20490;-72
2022/02/21 09:31:08;;;;;;;1.47;0.60;;;4.20;99.90;;;;;;4205342;28;20462;-75
2022/02/21 09:33:09;;;;;;;1.30;0.60;;;4.20;99.90;;;;;;4207393;28;20443;-73
2022/02/21 09:35:12;;;;;;;0.83;0.40;;;4.30;99.90;;;;;;4201369;28;20864;-75
2022/02/21 09:37:14;;;;;;;2.53;0.63;;;4.30;99.90;;;;;;4204853;28;20565;-73
2022/02/21 09:39:16;;;;;;;1.60;0.50;;;4.30;99.90;;;;;;4204663;28;20471;-74
2022/02/21 09:41:19;;;;;;;1.63;0.47;;;4.40;99.90;;;;;;4207112;28;21012;-73
2022/02/21 09:43:26;;;;;;;2.33;0.70;;;4.40;99.90;;;;;;4205445;28;20470;-74
2022/02/21 09:45:29;;;;;;;1.57;0.70;;;4.30;99.90;;;;;;4204088;28;21004;-73
2022/02/21 09:47:32;;;;;;;2.23;0.80;;;4.40;99.90;;;;;;4207545;28;20467;-74
2022/02/21 09:49:34;;;;;;;2.83;0.77;;;4.40;99.90;;;;;;4207659;28;20499;-73
2022/02/21 09:51:36;;;;;;;4.20;1.10;;;4.40;99.90;;;;;;4207539;28;20985;-73
2022/02/21 09:53:39;;;;;;;5.80;1.13;;;4.40;99.90;;;;;;4207300;28;20543;-73
2022/02/21 09:55:43;;;;;;;2.97;1.27;;;4.40;99.90;;;;;;4203624;28;20490;-76
2022/02/21 09:57:45;;;;;;;3.63;1.00;;;4.40;99.90;;;;;;4205835;28;20532;-76
2022/02/21 09:59:51;;;;;;;2.70;1.30;;;4.50;99.90;;;;;;4207140;28;20996;-73
2022/02/21 10:01:53;;;;;;;2.97;0.90;;;4.60;99.90;;;;;;4205834;28;20454;-73
2022/02/21 10:03:57;;;;;;;3.33;0.90;;;4.60;99.90;;;;;;4206951;28;20719;-75
2022/02/21 10:06:13;;;;;;;3.60;0.77;;;4.70;99.90;;;;;;4203904;28;20905;-73
2022/02/21 10:08:15;;;;;;;3.93;0.90;;;4.80;99.90;;;;;;4203356;28;21007;-73
2022/02/21 10:10:20;;;;;;;3.90;1.13;;;4.90;99.90;;;;;;4203993;28;20551;-73
2022/02/21 10:12:23;;;;;;;2.33;0.50;;;4.90;99.90;;;;;;4202434;28;20471;-73
2022/02/21 10:14:28;;;;;;;2.87;0.93;;;5.00;99.90;;;;;;4206509;28;21042;-73
2022/02/21 10:16:41;;;;;;;4.93;1.00;;;5.00;99.90;;;;;;4205317;28;20517;-73
2022/02/21 10:18:42;;;;;;;3.53;0.83;;;5.10;99.90;;;;;;4205020;28;20455;-73
2022/02/21 10:20:55;;;;;;;5.27;1.00;;;5.20;99.90;;;;;;4205478;28;21105;-74
2022/02/21 10:23:01;;;;;;;4.67;0.90;;;5.20;99.90;;;;;;4206829;28;20467;-76
2022/02/21 10:25:16;;;;;;;4.10;1.30;;;5.30;99.90;;;;;;4207370;28;20466;-74
2022/02/21 10:27:19;;;;;;;5.23;0.77;;;5.30;99.90;;;;;;4206660;28;20827;-73
2022/02/21 10:29:21;;;;;;;8.53;1.03;;;5.30;99.90;;;;;;4202066;28;20871;-74
2022/02/21 10:31:24;;;;;;;3.50;0.63;;;5.30;99.90;;;;;;4205117;28;20467;-73
2022/02/21 10:33:27;;;;;;;4.97;1.13;;;5.40;99.90;;;;;;4207706;28;20835;-74
2022/02/21 10:35:30;;;;;;;2.10;0.80;;;5.40;99.90;;;;;;4205012;28;20478;-74
2022/02/21 10:37:32;;;;;;;3.13;0.90;;;5.50;99.90;;;;;;4202265;28;20856;-75
2022/02/21 10:39:34;;;;;;;5.07;0.70;;;5.50;99.90;;;;;;4205500;28;20453;-73
2022/02/21 10:41:48;;;;;;;3.67;0.80;;;5.60;99.90;;;;;;4205611;28;20838;-76
2022/02/21 10:43:50;;;;;;;3.30;0.70;;;5.60;99.90;;;;;;4205380;28;20481;-75